createdAt,value
2017-08-16T00:00:48.688Z,21.56
2017-08-16T00:01:34.419Z,21.53
2017-08-16T00:02:34.131Z,21.46
2017-08-16T00:03:34.177Z,21.49
2017-08-16T00:04:34.184Z,21.54
2017-08-16T00:05:33.920Z,21.38
2017-08-16T00:06:33.943Z,21.5
2017-08-16T00:07:34.281Z,21.4
2017-08-16T00:08:34.286Z,21.35
2017-08-16T00:09:34.012Z,21.35
2017-08-16T00:10:34.041Z,21.34
2017-08-16T00:11:34.378Z,21.4
2017-08-16T00:12:34.100Z,21.31
2017-08-16T00:13:34.110Z,21.25
2017-08-16T00:14:34.459Z,21.22
2017-08-16T00:15:34.162Z,21.21
2017-08-16T00:16:34.505Z,21.21
2017-08-16T00:17:34.535Z,21.19
2017-08-16T00:18:34.562Z,21.16
2017-08-16T00:19:33.979Z,21.21
2017-08-16T00:20:34.597Z,21.25
2017-08-16T00:21:34.636Z,21.06
2017-08-16T00:22:34.664Z,21.04
2017-08-16T00:23:34.071Z,21.06
2017-08-16T00:24:34.706Z,21.07
2017-08-16T00:25:34.737Z,21.04
2017-08-16T00:26:34.462Z,20.94
2017-08-16T00:27:34.783Z,21.01
2017-08-16T00:28:34.512Z,20.97
2017-08-16T00:29:34.532Z,21.03
2017-08-16T00:30:49.476Z,21.09
2017-08-16T00:31:34.883Z,21.04
2017-08-16T00:32:34.908Z,21.04
2017-08-16T00:33:34.952Z,21.04
2017-08-16T00:34:34.966Z,21.06
2017-08-16T00:35:34.996Z,21.07
2017-08-16T00:36:35.029Z,20.91
2017-08-16T00:37:49.646Z,20.95
2017-08-16T00:38:35.080Z,21.07
2017-08-16T00:39:34.786Z,21.03
2017-08-16T00:40:35.138Z,21.04
2017-08-16T00:41:35.135Z,20.98
2017-08-16T00:42:34.874Z,20.94
2017-08-16T00:43:35.198Z,20.91
2017-08-16T00:44:35.234Z,20.92
2017-08-16T00:45:35.257Z,20.99
2017-08-16T00:46:49.872Z,21.03
2017-08-16T00:47:35.306Z,20.91
2017-08-16T00:48:35.331Z,20.94
2017-08-16T00:49:35.366Z,20.95
2017-08-16T00:50:35.073Z,21.01
2017-08-16T00:51:35.106Z,21.07
2017-08-16T00:53:35.159Z,21.1
2017-08-16T00:54:35.189Z,21.19
2017-08-16T00:55:35.516Z,21.17
2017-08-16T00:56:35.209Z,21.16
2017-08-16T00:57:35.252Z,21.16
2017-08-16T00:58:35.576Z,21.09
2017-08-16T00:59:35.610Z,21.12
2017-08-16T01:01:35.653Z,21.17
2017-08-16T01:02:50.293Z,21.21
2017-08-16T01:03:35.702Z,21.25
2017-08-16T01:04:35.752Z,21.09
2017-08-16T01:05:35.766Z,21.09
2017-08-16T01:06:35.854Z,21.14
2017-08-16T01:07:35.798Z,21.03
2017-08-16T01:08:35.520Z,21.19
2017-08-16T01:09:35.867Z,21.17
2017-08-16T01:10:35.901Z,21.1
2017-08-16T01:11:35.611Z,21.21
2017-08-16T01:12:35.956Z,21.21
2017-08-16T01:13:35.955Z,21.17
2017-08-16T01:14:35.994Z,21.19
2017-08-16T01:15:35.696Z,21.19
2017-08-16T01:16:36.050Z,21.12
2017-08-16T01:17:35.761Z,21.21
2017-08-16T01:18:50.686Z,21.27
2017-08-16T01:19:36.131Z,21.31
2017-08-16T01:20:36.144Z,21.32
2017-08-16T01:21:36.167Z,21.37
2017-08-16T01:22:36.197Z,21.38
2017-08-16T01:23:50.812Z,21.34
2017-08-16T01:24:36.235Z,21.43
2017-08-16T01:25:36.262Z,21.44
2017-08-16T01:26:36.306Z,21.4
2017-08-16T01:28:36.339Z,21.4
2017-08-16T01:29:36.384Z,21.32
2017-08-16T01:30:36.412Z,21.37
2017-08-16T01:31:36.434Z,21.38
2017-08-16T01:33:51.085Z,21.47
2017-08-16T01:34:36.204Z,21.44
2017-08-16T01:36:36.561Z,21.37
2017-08-16T01:37:36.569Z,21.44
2017-08-16T01:38:36.611Z,21.34
2017-08-16T01:39:36.631Z,21.29
2017-08-16T01:40:36.664Z,21.37
2017-08-16T01:41:36.695Z,21.38
2017-08-16T01:42:36.397Z,21.38
2017-08-16T01:43:36.747Z,21.37
2017-08-16T01:44:36.764Z,21.38
2017-08-16T01:45:36.791Z,21.38
2017-08-16T01:46:51.405Z,21.32
2017-08-16T01:47:36.850Z,21.31
2017-08-16T01:48:36.865Z,21.27
2017-08-16T01:50:51.203Z,21.38
2017-08-16T01:51:36.631Z,21.37
2017-08-16T01:52:36.956Z,21.32
2017-08-16T01:53:36.686Z,21.31
2017-08-16T01:54:37.018Z,21.27
2017-08-16T01:55:36.737Z,21.27
2017-08-16T01:56:37.059Z,21.22
2017-08-16T01:57:36.788Z,21.25
2017-08-16T01:59:37.131Z,21.22
2017-08-16T02:00:36.847Z,21.22
2017-08-16T02:01:37.199Z,21.25
2017-08-16T02:02:36.918Z,21.24
2017-08-16T02:03:37.247Z,21.29
2017-08-16T02:04:37.273Z,21.22
2017-08-16T02:05:51.907Z,21.31
2017-08-16T02:06:37.323Z,21.34
2017-08-16T02:07:37.372Z,21.35
2017-08-16T02:08:37.380Z,21.44
2017-08-16T02:10:37.435Z,21.35
2017-08-16T02:11:37.447Z,21.46
2017-08-16T02:12:37.480Z,21.31
2017-08-16T02:13:37.495Z,21.34
2017-08-16T02:14:37.532Z,21.31
2017-08-16T02:15:52.148Z,21.32
2017-08-16T02:16:37.581Z,21.4
2017-08-16T02:17:37.597Z,21.46
2017-08-16T02:18:37.631Z,21.38
2017-08-16T02:19:37.657Z,21.44
2017-08-16T02:20:37.680Z,21.35
2017-08-16T02:21:52.297Z,21.37
2017-08-16T02:22:37.740Z,21.49
2017-08-16T02:23:37.761Z,21.43
2017-08-16T02:24:37.822Z,21.37
2017-08-16T02:25:37.800Z,21.35
2017-08-16T02:26:37.826Z,21.44
2017-08-16T02:27:37.855Z,21.4
2017-08-16T02:28:37.897Z,21.42
2017-08-16T02:29:37.607Z,21.4
2017-08-16T02:30:37.628Z,21.35
2017-08-16T02:31:52.554Z,21.37
2017-08-16T02:32:37.977Z,21.43
2017-08-16T02:33:52.608Z,21.37
2017-08-16T02:34:37.721Z,21.35
2017-08-16T02:35:37.762Z,21.38
2017-08-16T02:36:37.794Z,21.43
2017-08-16T02:37:52.703Z,21.35
2017-08-16T02:38:37.830Z,21.38
2017-08-16T02:39:38.168Z,21.28
2017-08-16T02:41:38.209Z,21.22
2017-08-16T02:42:38.257Z,21.32
2017-08-16T02:43:38.266Z,21.25
2017-08-16T02:44:52.899Z,21.24
2017-08-16T02:45:38.321Z,21.27
2017-08-16T02:46:38.345Z,21.19
2017-08-16T02:47:38.054Z,21.22
2017-08-16T02:48:38.399Z,21.24
2017-08-16T02:49:38.417Z,21.25
2017-08-16T02:50:38.446Z,21.19
2017-08-16T02:51:38.463Z,21.1
2017-08-16T02:52:38.190Z,21.03
2017-08-16T02:53:53.119Z,21.12
2017-08-16T02:54:38.547Z,21.07
2017-08-16T02:56:38.585Z,20.92
2017-08-16T02:57:38.609Z,21.04
2017-08-16T02:58:53.252Z,20.98
2017-08-16T02:59:38.660Z,20.95
2017-08-16T03:00:38.709Z,20.95
2017-08-16T03:01:38.722Z,20.92
2017-08-16T03:02:38.763Z,20.97
2017-08-16T03:03:38.788Z,21.09
2017-08-16T03:04:38.789Z,21.03
2017-08-16T03:05:38.836Z,21.03
2017-08-16T03:06:53.446Z,21.21
2017-08-16T03:07:38.870Z,21.21
2017-08-16T03:08:53.503Z,21.19
2017-08-16T03:09:38.924Z,21.24
2017-08-16T03:10:38.946Z,21.28
2017-08-16T03:11:38.983Z,21.22
2017-08-16T03:12:38.999Z,21.28
2017-08-16T03:13:39.033Z,21.19
2017-08-16T03:14:39.042Z,21.19
2017-08-16T03:15:39.090Z,21.16
2017-08-16T03:16:39.110Z,21.16
2017-08-16T03:17:39.125Z,21.13
2017-08-16T03:18:39.162Z,21.17
2017-08-16T03:19:39.187Z,21.1
2017-08-16T03:20:39.215Z,21.09
2017-08-16T03:21:39.231Z,21.1
2017-08-16T03:22:39.256Z,21.13
2017-08-16T03:23:39.266Z,20.94
2017-08-16T03:24:39.310Z,20.97
2017-08-16T03:25:39.327Z,20.99
2017-08-16T03:27:39.376Z,20.88
2017-08-16T03:28:39.409Z,20.92
2017-08-16T03:29:39.434Z,20.95
2017-08-16T03:30:39.461Z,20.92
2017-08-16T03:32:39.497Z,20.85
2017-08-16T03:33:39.538Z,20.87
2017-08-16T03:34:39.549Z,20.87
2017-08-16T03:35:39.330Z,20.88
2017-08-16T03:36:39.598Z,20.89
2017-08-16T03:37:39.643Z,20.87
2017-08-16T03:38:39.663Z,20.79
2017-08-16T03:39:39.684Z,20.8
2017-08-16T03:40:54.358Z,20.85
2017-08-16T03:41:39.750Z,20.85
2017-08-16T03:42:39.763Z,20.85
2017-08-16T03:43:39.798Z,20.89
2017-08-16T03:44:39.814Z,20.92
2017-08-16T03:45:39.524Z,20.95
2017-08-16T03:46:39.894Z,20.89
2017-08-16T03:47:39.574Z,20.94
2017-08-16T03:48:39.922Z,20.95
2017-08-16T03:49:54.543Z,20.95
2017-08-16T03:50:39.666Z,20.97
2017-08-16T03:52:40.041Z,21.04
2017-08-16T03:53:40.055Z,20.98
2017-08-16T03:54:40.072Z,20.97
2017-08-16T03:56:54.729Z,20.97
2017-08-16T03:57:40.149Z,21.07
2017-08-16T03:58:54.780Z,21.04
2017-08-16T03:59:40.196Z,21.09
2017-08-16T04:00:40.230Z,21.06
2017-08-16T04:01:40.247Z,21.04
2017-08-16T04:02:40.318Z,21.12
2017-08-16T04:03:39.979Z,21.09
2017-08-16T04:04:40.329Z,21.09
2017-08-16T04:05:40.336Z,21.16
2017-08-16T04:06:54.974Z,21.22
2017-08-16T04:07:40.392Z,21.12
2017-08-16T04:08:40.119Z,21.19
2017-08-16T04:09:40.444Z,21.21
2017-08-16T04:10:40.478Z,21.17
2017-08-16T04:11:40.498Z,21.19
2017-08-16T04:13:40.552Z,21.22
2017-08-16T04:14:40.563Z,21.21
2017-08-16T04:16:40.632Z,21.22
2017-08-16T04:17:40.654Z,21.25
2017-08-16T04:18:40.671Z,21.19
2017-08-16T04:19:40.694Z,21.19
2017-08-16T04:20:40.426Z,21.22
2017-08-16T04:21:40.749Z,21.22
2017-08-16T04:22:40.794Z,21.19
2017-08-16T04:23:40.492Z,21.29
2017-08-16T04:24:40.833Z,21.24
2017-08-16T04:25:40.863Z,21.29
2017-08-16T04:26:40.876Z,21.28
2017-08-16T04:27:40.892Z,21.27
2017-08-16T04:28:55.539Z,21.25
2017-08-16T04:29:40.957Z,21.25
2017-08-16T04:30:40.982Z,21.31
2017-08-16T04:31:41.005Z,21.24
2017-08-16T04:32:40.728Z,21.28
2017-08-16T04:33:40.736Z,21.29
2017-08-16T04:34:55.688Z,21.34
2017-08-16T04:35:55.763Z,21.34
2017-08-16T04:36:41.128Z,21.29
2017-08-16T04:38:41.175Z,21.35
2017-08-16T04:39:41.234Z,21.28
2017-08-16T04:40:41.232Z,21.38
2017-08-16T04:41:41.270Z,21.4
2017-08-16T04:42:41.292Z,21.46
2017-08-16T04:43:55.967Z,21.19
2017-08-16T04:44:41.351Z,21.34
2017-08-16T04:45:41.357Z,21.38
2017-08-16T04:46:41.396Z,21.4
2017-08-16T04:47:41.454Z,21.34
2017-08-16T04:48:41.437Z,21.4
2017-08-16T04:49:41.527Z,21.38
2017-08-16T04:50:41.502Z,21.34
2017-08-16T04:51:41.195Z,21.24
2017-08-16T04:52:41.238Z,21.28
2017-08-16T04:53:56.165Z,21.21
2017-08-16T04:54:41.581Z,21.29
2017-08-16T04:56:41.339Z,21.24
2017-08-16T04:57:41.371Z,21.24
2017-08-16T04:58:41.680Z,21.14
2017-08-16T04:59:41.723Z,21.19
2017-08-16T05:00:41.726Z,21.21
2017-08-16T05:01:41.464Z,21.17
2017-08-16T05:02:41.506Z,21.17
2017-08-16T05:03:41.819Z,21.14
2017-08-16T05:04:41.852Z,21.16
2017-08-16T05:05:41.880Z,21.16
2017-08-16T05:06:41.904Z,21.21
2017-08-16T05:07:41.934Z,21.22
2017-08-16T05:08:41.965Z,21.17
2017-08-16T05:09:41.675Z,21.22
2017-08-16T05:10:41.681Z,21.22
2017-08-16T05:11:42.029Z,21.24
2017-08-16T05:12:42.085Z,21.21
2017-08-16T05:14:42.113Z,21.24
2017-08-16T05:15:56.714Z,21.28
2017-08-16T05:16:41.839Z,21.27
2017-08-16T05:17:41.854Z,21.31
2017-08-16T05:18:42.200Z,21.22
2017-08-16T05:19:42.238Z,21.29
2017-08-16T05:20:56.864Z,21.32
2017-08-16T05:21:42.285Z,21.25
2017-08-16T05:22:42.303Z,21.22
2017-08-16T05:23:42.350Z,21.27
2017-08-16T05:24:56.953Z,21.22
2017-08-16T05:25:42.387Z,21.17
2017-08-16T05:26:42.096Z,21.24
2017-08-16T05:27:42.438Z,21.19
2017-08-16T05:28:56.780Z,21.21
2017-08-16T05:29:42.471Z,21.19
2017-08-16T05:30:42.514Z,21.1
2017-08-16T05:31:57.136Z,21.04
2017-08-16T05:32:42.555Z,21.12
2017-08-16T05:33:42.273Z,21.12
2017-08-16T05:34:42.605Z,21.07
2017-08-16T05:35:42.642Z,21.09
2017-08-16T05:36:42.330Z,21.12
2017-08-16T05:37:42.692Z,21.09
2017-08-16T05:38:42.408Z,21.03
2017-08-16T05:39:42.722Z,21.13
2017-08-16T05:40:42.441Z,21.04
2017-08-16T05:41:42.804Z,21.14
2017-08-16T05:42:42.806Z,21.13
2017-08-16T05:43:42.838Z,21.21
2017-08-16T05:44:42.860Z,21.22
2017-08-16T05:45:42.883Z,21.28
2017-08-16T05:46:42.605Z,21.31
2017-08-16T05:47:57.535Z,21.17
2017-08-16T05:48:42.953Z,21.22
2017-08-16T05:49:43.027Z,21.25
2017-08-16T05:50:43.024Z,21.22
2017-08-16T05:51:43.045Z,21.17
2017-08-16T05:52:42.744Z,21.24
2017-08-16T05:54:43.111Z,21.19
2017-08-16T05:55:43.148Z,21.34
2017-08-16T05:56:57.766Z,21.22
2017-08-16T05:57:43.186Z,21.17
2017-08-16T05:58:42.902Z,21.25
2017-08-16T05:59:43.248Z,21.22
2017-08-16T06:00:43.030Z,21.27
2017-08-16T06:01:42.991Z,21.25
2017-08-16T06:02:43.016Z,21.24
2017-08-16T06:03:57.941Z,21.24
2017-08-16T06:04:43.362Z,21.16
2017-08-16T06:05:43.381Z,21.14
2017-08-16T06:06:58.026Z,21.22
2017-08-16T06:07:43.136Z,21.25
2017-08-16T06:08:43.471Z,21.37
2017-08-16T06:09:43.490Z,21.34
2017-08-16T06:11:43.551Z,21.25
2017-08-16T06:12:43.569Z,21.22
2017-08-16T06:13:58.195Z,21.27
2017-08-16T06:14:43.619Z,21.22
2017-08-16T06:15:43.652Z,21.22
2017-08-16T06:16:43.669Z,21.19
2017-08-16T06:17:43.707Z,21.24
2017-08-16T06:18:58.316Z,21.04
2017-08-16T06:19:58.342Z,21.13
2017-08-16T06:20:43.783Z,21.03
2017-08-16T06:21:58.390Z,21.07
2017-08-16T06:22:43.834Z,21.03
2017-08-16T06:23:43.869Z,21.04
2017-08-16T06:24:43.567Z,21.06
2017-08-16T06:25:43.907Z,20.89
2017-08-16T06:26:43.936Z,20.97
2017-08-16T06:27:58.553Z,20.92
2017-08-16T06:28:43.962Z,20.95
2017-08-16T06:29:44.021Z,20.97
2017-08-16T06:30:44.022Z,20.88
2017-08-16T06:31:44.048Z,20.97
2017-08-16T06:32:44.099Z,20.98
2017-08-16T06:33:44.107Z,21.04
2017-08-16T06:34:44.144Z,21.1
2017-08-16T06:35:44.144Z,21.1
2017-08-16T06:36:44.175Z,20.94
2017-08-16T06:37:44.208Z,20.98
2017-08-16T06:38:44.245Z,21.1
2017-08-16T06:39:44.263Z,20.91
2017-08-16T06:40:44.289Z,21.1
2017-08-16T06:41:44.000Z,21.04
2017-08-16T06:42:44.321Z,21.04
2017-08-16T06:43:44.384Z,21.09
2017-08-16T06:44:58.982Z,21.07
2017-08-16T06:45:44.110Z,20.95
2017-08-16T06:46:44.439Z,20.98
2017-08-16T06:47:44.464Z,20.99
2017-08-16T06:48:44.478Z,20.98
2017-08-16T06:50:59.134Z,20.88
2017-08-16T06:51:44.571Z,20.92
2017-08-16T06:52:44.582Z,20.69
2017-08-16T06:53:44.619Z,20.7
2017-08-16T06:54:44.639Z,20.58
2017-08-16T06:55:59.268Z,20.66
2017-08-16T06:56:44.387Z,20.52
2017-08-16T06:57:44.701Z,20.5
2017-08-16T06:58:44.743Z,20.52
2017-08-16T06:59:59.359Z,20.59
2017-08-16T07:00:44.796Z,20.66
2017-08-16T07:01:44.807Z,20.64
2017-08-16T07:02:44.845Z,20.73
2017-08-16T07:03:44.872Z,20.67
2017-08-16T07:04:44.590Z,20.79
2017-08-16T07:05:44.896Z,20.77
2017-08-16T07:06:59.565Z,20.77
2017-08-16T07:07:44.963Z,20.82
2017-08-16T07:08:44.983Z,20.85
2017-08-16T07:09:45.023Z,20.88
2017-08-16T07:10:44.753Z,20.84
2017-08-16T07:12:44.477Z,20.77
2017-08-16T07:13:44.798Z,20.67
2017-08-16T07:14:44.834Z,20.77
2017-08-16T07:15:45.173Z,20.82
2017-08-16T07:16:44.888Z,20.77
2017-08-16T07:17:44.914Z,20.85
2017-08-16T07:18:45.238Z,20.79
2017-08-16T07:19:44.965Z,20.76
2017-08-16T07:21:45.311Z,20.94
2017-08-16T07:23:45.362Z,20.92
2017-08-16T07:24:45.079Z,20.94
2017-08-16T07:25:45.134Z,20.92
2017-08-16T07:26:45.458Z,20.85
2017-08-16T07:28:00.082Z,20.87
2017-08-16T07:28:45.498Z,20.87
2017-08-16T07:29:44.910Z,20.85
2017-08-16T07:30:45.231Z,20.77
2017-08-16T07:31:45.569Z,20.73
2017-08-16T07:32:45.604Z,20.76
2017-08-16T07:33:45.633Z,20.82
2017-08-16T07:34:45.657Z,20.89
2017-08-16T07:35:45.676Z,20.85
2017-08-16T07:36:45.705Z,20.88
2017-08-16T07:37:45.725Z,20.8
2017-08-16T07:39:00.044Z,20.74
2017-08-16T07:39:45.771Z,20.64
2017-08-16T07:40:45.824Z,20.69
2017-08-16T07:41:45.841Z,20.69
2017-08-16T07:42:45.873Z,20.8
2017-08-16T07:43:45.865Z,20.69
2017-08-16T07:44:45.907Z,20.76
2017-08-16T07:45:45.930Z,20.73
2017-08-16T07:46:45.950Z,20.69
2017-08-16T07:47:45.666Z,20.72
2017-08-16T07:48:45.706Z,20.67
2017-08-16T07:49:45.733Z,20.55
2017-08-16T07:50:46.117Z,20.62
2017-08-16T07:51:45.768Z,20.59
2017-08-16T07:52:45.816Z,20.61
2017-08-16T07:54:00.734Z,20.67
2017-08-16T07:54:46.152Z,20.58
2017-08-16T07:56:00.788Z,20.59
2017-08-16T07:57:46.245Z,20.62
2017-08-16T07:58:46.246Z,20.5
2017-08-16T07:59:46.291Z,20.52
2017-08-16T08:00:46.306Z,20.5
2017-08-16T08:01:46.340Z,20.5
2017-08-16T08:02:46.353Z,20.51
2017-08-16T08:03:46.393Z,20.55
2017-08-16T08:04:46.430Z,20.61
2017-08-16T08:05:46.487Z,20.52
2017-08-16T08:06:46.469Z,20.52
2017-08-16T08:07:46.175Z,20.5
2017-08-16T08:08:46.210Z,20.62
2017-08-16T08:09:46.540Z,20.51
2017-08-16T08:10:46.868Z,20.5
2017-08-16T08:12:00.877Z,20.47
2017-08-16T08:12:46.310Z,20.43
2017-08-16T08:13:46.342Z,20.42
2017-08-16T08:14:46.364Z,20.43
2017-08-16T08:15:46.378Z,20.26
2017-08-16T08:16:46.702Z,20.21
2017-08-16T08:17:46.748Z,20.24
2017-08-16T08:18:46.772Z,20.23
2017-08-16T08:19:46.473Z,20.18
2017-08-16T08:20:46.823Z,20.16
2017-08-16T08:21:46.839Z,20.18
2017-08-16T08:22:46.593Z,20.11
2017-08-16T08:23:46.587Z,20.02
2017-08-16T08:24:46.601Z,20.08
2017-08-16T08:26:01.550Z,20.13
2017-08-16T08:27:01.572Z,20.13
2017-08-16T08:27:46.685Z,20.11
2017-08-16T08:29:01.625Z,20.06
2017-08-16T08:29:47.039Z,20.13
2017-08-16T08:30:46.761Z,20.06
2017-08-16T08:31:47.097Z,20.01
2017-08-16T08:32:46.497Z,19.76
2017-08-16T08:33:47.136Z,19.81
2017-08-16T08:34:46.872Z,19.74
2017-08-16T08:35:47.201Z,19.74
2017-08-16T08:36:47.209Z,19.69
2017-08-16T08:37:47.244Z,19.65
2017-08-16T08:38:47.279Z,19.63
2017-08-16T08:39:47.324Z,19.58
2017-08-16T08:40:47.012Z,19.56
2017-08-16T08:42:01.948Z,19.54
2017-08-16T08:42:47.065Z,19.58
2017-08-16T08:43:47.392Z,19.55
2017-08-16T08:44:47.409Z,19.58
2017-08-16T08:45:47.459Z,19.59
2017-08-16T08:46:47.465Z,19.58
2017-08-16T08:47:47.500Z,19.44
2017-08-16T08:49:47.549Z,19.56
2017-08-16T08:50:47.560Z,19.66
2017-08-16T08:51:47.589Z,19.65
2017-08-16T08:52:47.620Z,19.59
2017-08-16T08:53:47.647Z,19.76
2017-08-16T08:54:47.364Z,19.61
2017-08-16T08:55:47.685Z,19.73
2017-08-16T08:56:47.713Z,19.74
2017-08-16T08:58:02.340Z,19.8
2017-08-16T08:58:47.758Z,19.83
2017-08-16T08:59:47.794Z,19.83
2017-08-16T09:00:47.505Z,19.74
2017-08-16T09:01:47.848Z,19.76
2017-08-16T09:02:47.874Z,19.74
2017-08-16T09:03:47.879Z,19.95
2017-08-16T09:04:47.937Z,19.88
2017-08-16T09:05:47.940Z,19.91
2017-08-16T09:07:47.970Z,19.84
2017-08-16T09:08:48.018Z,19.91
2017-08-16T09:09:48.032Z,19.96
2017-08-16T09:10:48.072Z,19.92
2017-08-16T09:12:02.699Z,19.88
2017-08-16T09:12:48.114Z,19.94
2017-08-16T09:14:02.739Z,19.92
2017-08-16T09:14:48.162Z,19.99
2017-08-16T09:15:47.881Z,19.88
2017-08-16T09:16:48.208Z,19.84
2017-08-16T09:18:02.844Z,19.76
2017-08-16T09:18:48.263Z,19.8
2017-08-16T09:19:48.296Z,19.77
2017-08-16T09:20:48.314Z,19.77
2017-08-16T09:21:48.020Z,19.74
2017-08-16T09:22:48.064Z,19.77
2017-08-16T09:23:48.380Z,19.73
2017-08-16T09:25:48.437Z,19.58
2017-08-16T09:26:48.483Z,19.63
2017-08-16T09:27:48.482Z,19.69
2017-08-16T09:29:03.101Z,19.73
2017-08-16T09:29:48.536Z,19.59
2017-08-16T09:30:48.566Z,19.65
2017-08-16T09:31:48.577Z,19.65
2017-08-16T09:32:48.313Z,19.76
2017-08-16T09:33:48.318Z,19.76
2017-08-16T09:34:48.662Z,19.74
2017-08-16T09:35:48.375Z,19.8
2017-08-16T09:36:48.406Z,19.8
2017-08-16T09:37:48.420Z,19.77
2017-08-16T09:38:48.452Z,19.58
2017-08-16T09:39:48.792Z,19.71
2017-08-16T09:40:48.500Z,19.58
2017-08-16T09:41:48.529Z,19.76
2017-08-16T09:42:48.550Z,19.78
2017-08-16T09:43:48.894Z,19.81
2017-08-16T09:44:48.596Z,19.74
2017-08-16T09:45:48.628Z,19.59
2017-08-16T09:47:03.246Z,19.62
2017-08-16T09:47:48.676Z,19.69
2017-08-16T09:48:48.393Z,19.76
2017-08-16T09:49:48.402Z,19.66
2017-08-16T09:50:48.437Z,19.56
2017-08-16T09:51:48.452Z,19.66
2017-08-16T09:52:49.120Z,19.69
2017-08-16T09:54:03.731Z,19.62
2017-08-16T09:54:49.160Z,19.68
2017-08-16T09:55:49.186Z,19.58
2017-08-16T09:56:49.214Z,19.61
2017-08-16T09:57:49.233Z,19.58
2017-08-16T09:58:48.963Z,19.74
2017-08-16T10:00:03.572Z,19.74
2017-08-16T10:01:03.595Z,19.78
2017-08-16T10:01:49.331Z,19.74
2017-08-16T10:02:49.353Z,19.58
2017-08-16T10:03:49.372Z,19.73
2017-08-16T10:04:49.411Z,19.77
2017-08-16T10:05:49.127Z,19.83
2017-08-16T10:06:49.455Z,19.84
2017-08-16T10:07:49.479Z,19.86
2017-08-16T10:08:49.186Z,19.96
2017-08-16T10:10:04.128Z,20.16
2017-08-16T10:10:49.548Z,20.2
2017-08-16T10:11:49.275Z,20.24
2017-08-16T10:12:49.289Z,20.2
2017-08-16T10:13:49.641Z,20.23
2017-08-16T10:14:49.662Z,20.21
2017-08-16T10:15:49.685Z,20.31
2017-08-16T10:17:04.294Z,20.42
2017-08-16T10:17:49.430Z,20.36
2017-08-16T10:18:49.767Z,20.51
2017-08-16T10:19:49.462Z,20.61
2017-08-16T10:20:49.491Z,20.59
2017-08-16T10:21:49.830Z,20.58
2017-08-16T10:22:49.857Z,20.52
2017-08-16T10:23:49.573Z,20.39
2017-08-16T10:24:49.907Z,20.24
2017-08-16T10:25:49.933Z,20.26
2017-08-16T10:26:49.958Z,20.39
2017-08-16T10:28:04.577Z,20.5
2017-08-16T10:28:50.016Z,20.61
2017-08-16T10:30:50.059Z,20.61
2017-08-16T10:31:50.080Z,20.72
2017-08-16T10:33:04.696Z,20.58
2017-08-16T10:33:50.135Z,20.62
2017-08-16T10:34:50.167Z,20.51
2017-08-16T10:35:50.200Z,20.43
2017-08-16T10:36:50.195Z,20.43
2017-08-16T10:37:50.231Z,20.39
2017-08-16T10:38:50.250Z,20.58
2017-08-16T10:39:50.287Z,20.72
2017-08-16T10:41:04.908Z,20.72
2017-08-16T10:41:50.352Z,20.62
2017-08-16T10:42:50.356Z,20.69
2017-08-16T10:43:50.384Z,20.69
2017-08-16T10:44:50.421Z,20.76
2017-08-16T10:45:50.432Z,20.77
2017-08-16T10:46:50.461Z,20.88
2017-08-16T10:47:50.476Z,20.94
2017-08-16T10:49:04.801Z,21.13
2017-08-16T10:49:50.532Z,21.22
2017-08-16T10:50:50.569Z,21.21
2017-08-16T10:51:50.596Z,21.17
2017-08-16T10:52:50.617Z,21.29
2017-08-16T10:54:05.240Z,21.25
2017-08-16T10:54:50.664Z,21.35
2017-08-16T10:55:50.674Z,21.52
2017-08-16T10:56:50.759Z,21.54
2017-08-16T10:58:05.336Z,21.62
2017-08-16T10:59:50.484Z,21.61
2017-08-16T11:00:50.806Z,21.49
2017-08-16T11:01:50.541Z,21.4
2017-08-16T11:04:05.498Z,21.59
2017-08-16T11:05:05.529Z,21.54
2017-08-16T11:05:50.943Z,21.58
2017-08-16T11:06:50.972Z,21.58
2017-08-16T11:07:50.990Z,21.61
2017-08-16T11:08:51.035Z,21.4
2017-08-16T11:09:51.036Z,21.52
2017-08-16T11:10:51.067Z,21.58
2017-08-16T11:11:50.786Z,21.69
2017-08-16T11:13:05.727Z,21.84
2017-08-16T11:13:50.855Z,21.9
2017-08-16T11:14:51.169Z,21.96
2017-08-16T11:15:50.900Z,21.84
2017-08-16T11:16:51.213Z,22.02
2017-08-16T11:17:50.939Z,22.14
2017-08-16T11:19:05.873Z,22.15
2017-08-16T11:19:51.313Z,22.12
2017-08-16T11:20:51.333Z,22.17
2017-08-16T11:21:51.364Z,22.1
2017-08-16T11:22:51.390Z,22
2017-08-16T11:23:51.415Z,22.14
2017-08-16T11:26:51.500Z,22.09
2017-08-16T11:27:51.501Z,22.09
2017-08-16T11:29:51.254Z,22.28
2017-08-16T11:30:51.600Z,22.35
2017-08-16T11:31:51.974Z,22.4
2017-08-16T11:32:51.653Z,22.45
2017-08-16T11:33:51.669Z,22.54
2017-08-16T11:34:51.691Z,22.54
2017-08-16T11:36:06.336Z,22.79
2017-08-16T11:36:51.744Z,22.97
2017-08-16T11:37:51.786Z,23.07
2017-08-16T11:38:51.509Z,23.43
2017-08-16T11:39:51.839Z,23.51
2017-08-16T11:40:51.540Z,23.66
2017-08-16T11:41:51.881Z,23.83
2017-08-16T11:42:51.906Z,24.08
2017-08-16T11:43:51.946Z,24.27
2017-08-16T11:45:06.563Z,24.47
2017-08-16T11:45:51.979Z,24.43
2017-08-16T11:46:52.024Z,24.57
2017-08-16T11:47:52.041Z,24.84
2017-08-16T11:49:52.103Z,25.03
2017-08-16T11:50:52.127Z,25.08
2017-08-16T11:52:06.753Z,25.09
2017-08-16T11:52:52.179Z,24.95
2017-08-16T11:53:52.302Z,24.99
2017-08-16T11:54:51.934Z,25.18
2017-08-16T11:55:52.268Z,25.36
2017-08-16T11:56:52.454Z,25.51
2017-08-16T11:57:52.320Z,25.46
2017-08-16T11:58:52.337Z,25.32
2017-08-16T12:00:06.972Z,25.08
2017-08-16T12:01:52.430Z,24.91
2017-08-16T12:02:52.458Z,24.78
2017-08-16T12:03:52.497Z,24.71
2017-08-16T12:04:52.513Z,24.61
2017-08-16T12:05:52.548Z,24.6
2017-08-16T12:07:07.161Z,24.5
2017-08-16T12:08:52.600Z,24.49
2017-08-16T12:09:52.642Z,24.52
2017-08-16T12:10:52.370Z,24.58
2017-08-16T12:11:52.709Z,24.58
2017-08-16T12:12:52.741Z,24.61
2017-08-16T12:13:52.745Z,24.61
2017-08-16T12:14:52.774Z,24.61
2017-08-16T12:15:52.823Z,24.68
2017-08-16T12:16:52.836Z,24.8
2017-08-16T12:17:52.868Z,24.99
2017-08-16T12:18:52.886Z,24.96
2017-08-16T12:19:52.623Z,24.71
2017-08-16T12:20:52.943Z,24.68
2017-08-16T12:21:53.001Z,24.58
2017-08-16T12:22:53.000Z,24.61
2017-08-16T12:24:07.328Z,24.58
2017-08-16T12:24:53.058Z,24.57
2017-08-16T12:25:53.092Z,24.57
2017-08-16T12:26:53.109Z,24.4
2017-08-16T12:27:53.158Z,24.37
2017-08-16T12:28:53.178Z,24.22
2017-08-16T12:29:53.200Z,24.16
2017-08-16T12:30:53.226Z,24.03
2017-08-16T12:31:52.939Z,23.94
2017-08-16T12:32:52.969Z,23.84
2017-08-16T12:33:52.980Z,23.79
2017-08-16T12:34:53.338Z,23.68
2017-08-16T12:35:53.369Z,23.72
2017-08-16T12:36:53.401Z,23.76
2017-08-16T12:37:53.419Z,23.65
2017-08-16T12:39:08.037Z,23.57
2017-08-16T12:40:08.077Z,23.55
2017-08-16T12:40:53.187Z,23.76
2017-08-16T12:41:53.213Z,23.88
2017-08-16T12:42:52.933Z,23.88
2017-08-16T12:43:53.568Z,24.08
2017-08-16T12:44:53.604Z,24.1
2017-08-16T12:45:53.629Z,24.32
2017-08-16T12:46:53.659Z,24.4
2017-08-16T12:47:53.688Z,24.43
2017-08-16T12:49:08.303Z,24.47
2017-08-16T12:49:53.765Z,24.52
2017-08-16T12:50:53.747Z,24.39
2017-08-16T12:52:08.404Z,23.91
2017-08-16T12:52:53.818Z,23.83
2017-08-16T12:53:53.840Z,23.8
2017-08-16T12:55:53.884Z,23.78
2017-08-16T12:56:53.931Z,23.73
2017-08-16T12:57:53.940Z,23.76
2017-08-16T12:58:53.990Z,23.78
2017-08-16T12:59:53.693Z,23.87
2017-08-16T13:00:53.741Z,24
2017-08-16T13:01:54.065Z,23.88
2017-08-16T13:02:54.083Z,24
2017-08-16T13:03:53.808Z,24.08
2017-08-16T13:05:08.744Z,24.06
2017-08-16T13:05:54.180Z,24.03
2017-08-16T13:06:54.185Z,23.66
2017-08-16T13:07:54.242Z,23.39
2017-08-16T13:08:53.940Z,23.38
2017-08-16T13:09:54.271Z,23.5
2017-08-16T13:11:08.908Z,23.55
2017-08-16T13:11:54.329Z,23.61
2017-08-16T13:12:54.358Z,23.69
2017-08-16T13:13:54.074Z,23.93
2017-08-16T13:14:54.425Z,24.13
2017-08-16T13:15:54.140Z,23.91
2017-08-16T13:16:54.462Z,24.12
2017-08-16T13:17:54.504Z,23.87
2017-08-16T13:18:54.508Z,24.1
2017-08-16T13:21:09.181Z,24.65
2017-08-16T13:21:54.593Z,24.76
2017-08-16T13:23:54.651Z,25.05
2017-08-16T13:24:54.698Z,25.2
2017-08-16T13:25:54.711Z,25.24
2017-08-16T13:27:54.159Z,25.15
2017-08-16T13:28:54.491Z,25.3
2017-08-16T13:29:54.525Z,25.45
2017-08-16T13:30:54.541Z,25.46
2017-08-16T13:32:54.909Z,25.47
2017-08-16T13:33:54.920Z,25.35
2017-08-16T13:35:09.565Z,25.32
2017-08-16T13:35:54.977Z,25.4
2017-08-16T13:36:55.032Z,25.51
2017-08-16T13:37:54.747Z,25.57